sensor_id;sensor_type;location;lat;lon;timestamp;temperature;humidity
38788;DHT22;24536;45.488;12.238;2023-02-11T00:00:30;5.40;52.80
38788;DHT22;24536;45.488;12.238;2023-02-11T00:02:55;5.40;52.90
38788;DHT22;24536;45.488;12.238;2023-02-11T00:05:21;5.30;52.70
38788;DHT22;24536;45.488;12.238;2023-02-11T00:07:47;5.30;52.60
38788;DHT22;24536;45.488;12.238;2023-02-11T00:10:13;5.30;52.60
38788;DHT22;24536;45.488;12.238;2023-02-11T00:12:38;5.30;52.40
38788;DHT22;24536;45.488;12.238;2023-02-11T00:15:06;5.30;52.30
38788;DHT22;24536;45.488;12.238;2023-02-11T00:17:32;5.30;51.90
38788;DHT22;24536;45.488;12.238;2023-02-11T00:19:58;5.30;52.20
38788;DHT22;24536;45.488;12.238;2023-02-11T00:24:50;5.20;51.70
38788;DHT22;24536;45.488;12.238;2023-02-11T00:27:15;5.30;52.20
38788;DHT22;24536;45.488;12.238;2023-02-11T00:29:41;5.20;52.20
38788;DHT22;24536;45.488;12.238;2023-02-11T00:32:07;5.20;52.40
38788;DHT22;24536;45.488;12.238;2023-02-11T00:34:34;5.20;52.50
38788;DHT22;24536;45.488;12.238;2023-02-11T00:37:00;5.10;52.70
38788;DHT22;24536;45.488;12.238;2023-02-11T00:39:26;5.10;53.00
38788;DHT22;24536;45.488;12.238;2023-02-11T00:41:52;5.10;52.70
38788;DHT22;24536;45.488;12.238;2023-02-11T00:44:18;5.10;53.20
38788;DHT22;24536;45.488;12.238;2023-02-11T00:46:43;5.10;53.10
38788;DHT22;24536;45.488;12.238;2023-02-11T00:49:09;5.10;53.20
38788;DHT22;24536;45.488;12.238;2023-02-11T00:51:35;5.00;53.20
38788;DHT22;24536;45.488;12.238;2023-02-11T00:54:01;5.00;52.90
38788;DHT22;24536;45.488;12.238;2023-02-11T00:56:26;5.00;53.50
38788;DHT22;24536;45.488;12.238;2023-02-11T00:58:52;5.00;53.60
38788;DHT22;24536;45.488;12.238;2023-02-11T01:01:18;5.00;53.70
38788;DHT22;24536;45.488;12.238;2023-02-11T01:04:02;5.00;53.50
38788;DHT22;24536;45.488;12.238;2023-02-11T01:06:28;5.00;53.40
38788;DHT22;24536;45.488;12.238;2023-02-11T01:08:54;4.90;53.60
38788;DHT22;24536;45.488;12.238;2023-02-11T01:11:20;4.90;53.80
38788;DHT22;24536;45.488;12.238;2023-02-11T01:13:48;4.90;53.90
38788;DHT22;24536;45.488;12.238;2023-02-11T01:16:14;4.90;54.00
38788;DHT22;24536;45.488;12.238;2023-02-11T01:18:40;4.80;53.70
38788;DHT22;24536;45.488;12.238;2023-02-11T01:23:49;5.00;53.70
38788;DHT22;24536;45.488;12.238;2023-02-11T01:26:14;4.90;53.80
38788;DHT22;24536;45.488;12.238;2023-02-11T01:28:40;4.90;53.80
38788;DHT22;24536;45.488;12.238;2023-02-11T01:31:06;4.80;54.40
38788;DHT22;24536;45.488;12.238;2023-02-11T01:33:32;4.80;54.50
38788;DHT22;24536;45.488;12.238;2023-02-11T01:36:02;4.80;54.60
38788;DHT22;24536;45.488;12.238;2023-02-11T01:38:29;4.80;54.70
38788;DHT22;24536;45.488;12.238;2023-02-11T01:40:56;4.80;55.00
38788;DHT22;24536;45.488;12.238;2023-02-11T01:43:23;4.90;55.20
38788;DHT22;24536;45.488;12.238;2023-02-11T01:48:51;5.00;55.00
38788;DHT22;24536;45.488;12.238;2023-02-11T01:51:25;5.00;55.10
38788;DHT22;24536;45.488;12.238;2023-02-11T01:53:52;5.00;55.10
38788;DHT22;24536;45.488;12.238;2023-02-11T01:56:43;5.00;55.30
38788;DHT22;24536;45.488;12.238;2023-02-11T01:59:40;5.00;55.30
38788;DHT22;24536;45.488;12.238;2023-02-11T02:02:10;5.00;55.30
38788;DHT22;24536;45.488;12.238;2023-02-11T02:04:49;4.90;55.50
38788;DHT22;24536;45.488;12.238;2023-02-11T02:07:32;4.90;55.60
38788;DHT22;24536;45.488;12.238;2023-02-11T02:10:07;4.90;55.50
38788;DHT22;24536;45.488;12.238;2023-02-11T02:12:33;4.80;55.40
38788;DHT22;24536;45.488;12.238;2023-02-11T02:15:21;4.70;55.00
38788;DHT22;24536;45.488;12.238;2023-02-11T02:18:08;4.80;55.50
38788;DHT22;24536;45.488;12.238;2023-02-11T02:32:08;4.70;54.90
38788;DHT22;24536;45.488;12.238;2023-02-11T02:34:43;4.70;55.10
38788;DHT22;24536;45.488;12.238;2023-02-11T02:37:19;4.70;54.60
38788;DHT22;24536;45.488;12.238;2023-02-11T02:39:48;4.70;55.30
38788;DHT22;24536;45.488;12.238;2023-02-11T02:42:15;4.80;55.40
38788;DHT22;24536;45.488;12.238;2023-02-11T02:44:48;4.70;54.90
38788;DHT22;24536;45.488;12.238;2023-02-11T02:47:14;4.80;55.50
38788;DHT22;24536;45.488;12.238;2023-02-11T02:49:39;4.70;55.30
38788;DHT22;24536;45.488;12.238;2023-02-11T02:52:35;4.60;55.10
38788;DHT22;24536;45.488;12.238;2023-02-11T02:55:11;4.60;54.90
38788;DHT22;24536;45.488;12.238;2023-02-11T02:58:04;4.70;55.20
38788;DHT22;24536;45.488;12.238;2023-02-11T03:05:51;4.80;54.50
38788;DHT22;24536;45.488;12.238;2023-02-11T03:10:51;4.70;54.50
38788;DHT22;24536;45.488;12.238;2023-02-11T03:13:21;4.70;54.90
38788;DHT22;24536;45.488;12.238;2023-02-11T03:15:51;4.70;55.00
38788;DHT22;24536;45.488;12.238;2023-02-11T03:18:20;4.60;55.20
38788;DHT22;24536;45.488;12.238;2023-02-11T03:20:49;4.60;54.90
38788;DHT22;24536;45.488;12.238;2023-02-11T03:23:25;4.60;55.50
38788;DHT22;24536;45.488;12.238;2023-02-11T03:26:20;4.60;55.60
38788;DHT22;24536;45.488;12.238;2023-02-11T03:31:53;4.60;56.00
38788;DHT22;24536;45.488;12.238;2023-02-11T03:34:28;4.60;55.90
38788;DHT22;24536;45.488;12.238;2023-02-11T03:40:14;4.50;55.90
38788;DHT22;24536;45.488;12.238;2023-02-11T03:43:00;4.50;55.90
38788;DHT22;24536;45.488;12.238;2023-02-11T03:45:27;4.50;55.90
38788;DHT22;24536;45.488;12.238;2023-02-11T03:48:00;4.50;55.90
38788;DHT22;24536;45.488;12.238;2023-02-11T03:50:30;4.50;56.00
38788;DHT22;24536;45.488;12.238;2023-02-11T03:52:58;4.50;56.10
38788;DHT22;24536;45.488;12.238;2023-02-11T03:55:26;4.40;56.10
38788;DHT22;24536;45.488;12.238;2023-02-11T03:57:52;4.40;56.20
38788;DHT22;24536;45.488;12.238;2023-02-11T04:00:18;4.30;56.30
38788;DHT22;24536;45.488;12.238;2023-02-11T04:02:44;4.30;56.50
38788;DHT22;24536;45.488;12.238;2023-02-11T04:05:13;4.20;56.50
38788;DHT22;24536;45.488;12.238;2023-02-11T04:07:39;4.20;56.70
38788;DHT22;24536;45.488;12.238;2023-02-11T04:10:05;4.10;56.70
38788;DHT22;24536;45.488;12.238;2023-02-11T04:12:31;4.10;56.90
38788;DHT22;24536;45.488;12.238;2023-02-11T04:14:56;4.10;56.80
38788;DHT22;24536;45.488;12.238;2023-02-11T04:17:22;4.00;56.30
38788;DHT22;24536;45.488;12.238;2023-02-11T04:19:48;4.00;56.80
38788;DHT22;24536;45.488;12.238;2023-02-11T04:22:13;4.00;56.80
38788;DHT22;24536;45.488;12.238;2023-02-11T04:24:39;4.00;56.80
38788;DHT22;24536;45.488;12.238;2023-02-11T04:27:05;3.90;56.80
38788;DHT22;24536;45.488;12.238;2023-02-11T04:31:57;3.80;56.90
38788;DHT22;24536;45.488;12.238;2023-02-11T04:34:22;3.90;57.30
38788;DHT22;24536;45.488;12.238;2023-02-11T04:39:15;3.80;56.90
38788;DHT22;24536;45.488;12.238;2023-02-11T04:44:07;3.80;56.90
38788;DHT22;24536;45.488;12.238;2023-02-11T04:46:34;3.80;57.40
38788;DHT22;24536;45.488;12.238;2023-02-11T04:49:00;3.80;57.50
38788;DHT22;24536;45.488;12.238;2023-02-11T04:51:25;3.80;57.50
38788;DHT22;24536;45.488;12.238;2023-02-11T04:53:51;3.80;57.80
38788;DHT22;24536;45.488;12.238;2023-02-11T04:56:17;3.80;57.60
38788;DHT22;24536;45.488;12.238;2023-02-11T04:58:42;3.80;57.70
38788;DHT22;24536;45.488;12.238;2023-02-11T05:01:11;3.80;57.80
38788;DHT22;24536;45.488;12.238;2023-02-11T05:03:37;3.70;57.70
38788;DHT22;24536;45.488;12.238;2023-02-11T05:08:30;3.70;57.40
38788;DHT22;24536;45.488;12.238;2023-02-11T05:10:56;3.70;57.90
38788;DHT22;24536;45.488;12.238;2023-02-11T05:13:22;3.70;57.90
38788;DHT22;24536;45.488;12.238;2023-02-11T05:15:48;3.60;58.10
38788;DHT22;24536;45.488;12.238;2023-02-11T05:18:13;3.70;58.20
38788;DHT22;24536;45.488;12.238;2023-02-11T05:20:41;3.60;58.00
38788;DHT22;24536;45.488;12.238;2023-02-11T05:23:06;3.60;58.50
38788;DHT22;24536;45.488;12.238;2023-02-11T05:27:58;3.60;58.20
38788;DHT22;24536;45.488;12.238;2023-02-11T05:30:24;3.70;58.70
38788;DHT22;24536;45.488;12.238;2023-02-11T05:32:50;3.60;58.80
38788;DHT22;24536;45.488;12.238;2023-02-11T05:35:16;3.60;58.90
38788;DHT22;24536;45.488;12.238;2023-02-11T05:40:08;3.60;58.50
38788;DHT22;24536;45.488;12.238;2023-02-11T05:45:00;3.60;58.50
38788;DHT22;24536;45.488;12.238;2023-02-11T05:49:52;3.60;58.50
38788;DHT22;24536;45.488;12.238;2023-02-11T05:52:19;3.60;59.00
38788;DHT22;24536;45.488;12.238;2023-02-11T05:54:45;3.70;59.00
38788;DHT22;24536;45.488;12.238;2023-02-11T05:57:11;3.70;58.90
38788;DHT22;24536;45.488;12.238;2023-02-11T05:59:36;3.70;58.70
38788;DHT22;24536;45.488;12.238;2023-02-11T06:02:02;3.70;58.80
38788;DHT22;24536;45.488;12.238;2023-02-11T06:04:28;3.80;58.70
38788;DHT22;24536;45.488;12.238;2023-02-11T06:06:54;3.80;58.70
38788;DHT22;24536;45.488;12.238;2023-02-11T06:09:19;3.80;58.80
38788;DHT22;24536;45.488;12.238;2023-02-11T06:11:45;3.80;58.70
38788;DHT22;24536;45.488;12.238;2023-02-11T06:14:11;3.80;58.70
38788;DHT22;24536;45.488;12.238;2023-02-11T06:16:36;3.80;58.70
38788;DHT22;24536;45.488;12.238;2023-02-11T06:19:03;3.80;58.80
38788;DHT22;24536;45.488;12.238;2023-02-11T06:21:28;3.80;58.70
38788;DHT22;24536;45.488;12.238;2023-02-11T06:23:54;3.80;58.80
38788;DHT22;24536;45.488;12.238;2023-02-11T06:26:21;3.80;58.90
38788;DHT22;24536;45.488;12.238;2023-02-11T06:28:48;3.80;58.80
38788;DHT22;24536;45.488;12.238;2023-02-11T06:31:13;3.90;58.80
38788;DHT22;24536;45.488;12.238;2023-02-11T06:33:39;3.90;58.90
38788;DHT22;24536;45.488;12.238;2023-02-11T06:36:14;3.90;58.80
38788;DHT22;24536;45.488;12.238;2023-02-11T06:38:39;3.90;58.80
38788;DHT22;24536;45.488;12.238;2023-02-11T06:41:07;3.80;59.20
38788;DHT22;24536;45.488;12.238;2023-02-11T06:43:33;3.90;59.40
38788;DHT22;24536;45.488;12.238;2023-02-11T06:45:59;3.90;59.40
38788;DHT22;24536;45.488;12.238;2023-02-11T06:48:24;3.90;59.40
38788;DHT22;24536;45.488;12.238;2023-02-11T06:50:50;3.90;59.60
38788;DHT22;24536;45.488;12.238;2023-02-11T06:53:15;3.90;59.30
38788;DHT22;24536;45.488;12.238;2023-02-11T06:55:41;3.90;59.00
38788;DHT22;24536;45.488;12.238;2023-02-11T06:58:07;3.90;59.00
38788;DHT22;24536;45.488;12.238;2023-02-11T07:00:32;3.90;59.40
38788;DHT22;24536;45.488;12.238;2023-02-11T07:02:58;4.00;59.40
38788;DHT22;24536;45.488;12.238;2023-02-11T07:05:24;3.90;59.50
38788;DHT22;24536;45.488;12.238;2023-02-11T07:07:49;3.90;58.90
38788;DHT22;24536;45.488;12.238;2023-02-11T07:10:15;3.90;59.40
38788;DHT22;24536;45.488;12.238;2023-02-11T07:12:41;3.90;59.20
38788;DHT22;24536;45.488;12.238;2023-02-11T07:15:07;3.90;58.80
38788;DHT22;24536;45.488;12.238;2023-02-11T07:17:33;3.90;59.20
38788;DHT22;24536;45.488;12.238;2023-02-11T07:20:00;3.90;59.00
38788;DHT22;24536;45.488;12.238;2023-02-11T07:22:33;3.90;58.50
38788;DHT22;24536;45.488;12.238;2023-02-11T07:24:59;3.90;58.50
38788;DHT22;24536;45.488;12.238;2023-02-11T07:27:24;3.90;59.20
38788;DHT22;24536;45.488;12.238;2023-02-11T07:29:50;4.00;59.00
38788;DHT22;24536;45.488;12.238;2023-02-11T07:32:16;4.00;58.40
38788;DHT22;24536;45.488;12.238;2023-02-11T07:34:42;4.00;58.80
38788;DHT22;24536;45.488;12.238;2023-02-11T07:37:07;4.00;58.20
38788;DHT22;24536;45.488;12.238;2023-02-11T07:39:33;4.00;58.70
38788;DHT22;24536;45.488;12.238;2023-02-11T07:41:59;4.10;58.90
38788;DHT22;24536;45.488;12.238;2023-02-11T07:44:24;4.20;59.00
38788;DHT22;24536;45.488;12.238;2023-02-11T07:46:50;4.20;58.60
38788;DHT22;24536;45.488;12.238;2023-02-11T07:49:17;4.20;58.40
38788;DHT22;24536;45.488;12.238;2023-02-11T07:51:42;4.30;58.20
38788;DHT22;24536;45.488;12.238;2023-02-11T07:54:10;4.30;57.60
38788;DHT22;24536;45.488;12.238;2023-02-11T07:56:36;4.40;57.10
38788;DHT22;24536;45.488;12.238;2023-02-11T08:01:29;4.40;56.90
38788;DHT22;24536;45.488;12.238;2023-02-11T08:03:57;4.40;57.30
38788;DHT22;24536;45.488;12.238;2023-02-11T08:06:24;4.60;56.90
38788;DHT22;24536;45.488;12.238;2023-02-11T08:08:51;4.60;57.40
38788;DHT22;24536;45.488;12.238;2023-02-11T08:11:20;4.80;56.90
38788;DHT22;24536;45.488;12.238;2023-02-11T08:13:46;4.80;57.30
38788;DHT22;24536;45.488;12.238;2023-02-11T08:18:46;5.10;57.20
38788;DHT22;24536;45.488;12.238;2023-02-11T08:21:12;5.20;56.80
38788;DHT22;24536;45.488;12.238;2023-02-11T08:23:40;5.30;55.80
38788;DHT22;24536;45.488;12.238;2023-02-11T08:26:08;5.50;56.20
38788;DHT22;24536;45.488;12.238;2023-02-11T08:28:37;5.60;55.80
38788;DHT22;24536;45.488;12.238;2023-02-11T08:31:20;5.80;55.60
38788;DHT22;24536;45.488;12.238;2023-02-11T08:33:46;5.90;54.90
38788;DHT22;24536;45.488;12.238;2023-02-11T08:36:21;6.10;55.30
38788;DHT22;24536;45.488;12.238;2023-02-11T08:38:48;6.20;54.60
38788;DHT22;24536;45.488;12.238;2023-02-11T08:41:14;6.60;54.50
38788;DHT22;24536;45.488;12.238;2023-02-11T08:43:41;6.60;54.90
38788;DHT22;24536;45.488;12.238;2023-02-11T08:46:08;6.80;54.60
38788;DHT22;24536;45.488;12.238;2023-02-11T08:51:09;7.30;52.80
38788;DHT22;24536;45.488;12.238;2023-02-11T08:53:36;7.30;53.20
38788;DHT22;24536;45.488;12.238;2023-02-11T08:56:02;7.50;53.00
38788;DHT22;24536;45.488;12.238;2023-02-11T08:58:28;7.60;51.70
38788;DHT22;24536;45.488;12.238;2023-02-11T09:00:53;7.70;48.60
38788;DHT22;24536;45.488;12.238;2023-02-11T09:03:19;7.90;50.80
38788;DHT22;24536;45.488;12.238;2023-02-11T09:05:48;8.10;49.80
38788;DHT22;24536;45.488;12.238;2023-02-11T09:08:15;8.20;50.20
38788;DHT22;24536;45.488;12.238;2023-02-11T09:10:41;8.40;48.80
38788;DHT22;24536;45.488;12.238;2023-02-11T09:13:07;8.40;48.80
38788;DHT22;24536;45.488;12.238;2023-02-11T09:15:33;8.60;48.40
38788;DHT22;24536;45.488;12.238;2023-02-11T09:17:59;8.70;48.20
38788;DHT22;24536;45.488;12.238;2023-02-11T09:20:26;8.90;47.90
38788;DHT22;24536;45.488;12.238;2023-02-11T09:22:53;9.10;47.70
38788;DHT22;24536;45.488;12.238;2023-02-11T09:25:18;9.20;47.60
38788;DHT22;24536;45.488;12.238;2023-02-11T09:27:44;9.30;46.10
38788;DHT22;24536;45.488;12.238;2023-02-11T09:30:10;9.30;46.60
38788;DHT22;24536;45.488;12.238;2023-02-11T09:32:36;9.30;46.50
38788;DHT22;24536;45.488;12.238;2023-02-11T09:35:02;9.40;46.40
38788;DHT22;24536;45.488;12.238;2023-02-11T09:37:27;9.40;46.80
38788;DHT22;24536;45.488;12.238;2023-02-11T09:39:53;9.70;46.30
38788;DHT22;24536;45.488;12.238;2023-02-11T09:45:27;9.80;44.90
38788;DHT22;24536;45.488;12.238;2023-02-11T09:48:00;9.80;45.70
38788;DHT22;24536;45.488;12.238;2023-02-11T09:50:29;9.90;45.10
38788;DHT22;24536;45.488;12.238;2023-02-11T09:52:59;10.00;44.30
38788;DHT22;24536;45.488;12.238;2023-02-11T09:55:38;9.90;44.90
38788;DHT22;24536;45.488;12.238;2023-02-11T09:58:16;9.80;44.20
38788;DHT22;24536;45.488;12.238;2023-02-11T10:11:20;10.10;44.70
38788;DHT22;24536;45.488;12.238;2023-02-11T10:13:58;10.30;45.20
38788;DHT22;24536;45.488;12.238;2023-02-11T10:19:29;10.70;45.10
38788;DHT22;24536;45.488;12.238;2023-02-11T10:22:28;10.90;47.10
38788;DHT22;24536;45.488;12.238;2023-02-11T10:24:56;11.20;46.50
38788;DHT22;24536;45.488;12.238;2023-02-11T10:27:31;11.40;45.90
38788;DHT22;24536;45.488;12.238;2023-02-11T10:30:08;11.60;45.10
38788;DHT22;24536;45.488;12.238;2023-02-11T10:32:50;11.80;44.70
38788;DHT22;24536;45.488;12.238;2023-02-11T10:35:19;11.90;43.90
38788;DHT22;24536;45.488;12.238;2023-02-11T10:37:46;12.00;44.20
38788;DHT22;24536;45.488;12.238;2023-02-11T10:40:20;12.00;43.40
38788;DHT22;24536;45.488;12.238;2023-02-11T10:42:55;12.00;43.70
38788;DHT22;24536;45.488;12.238;2023-02-11T10:45:32;11.90;43.40
38788;DHT22;24536;45.488;12.238;2023-02-11T10:48:00;11.90;43.90
38788;DHT22;24536;45.488;12.238;2023-02-11T10:50:30;11.90;43.90
38788;DHT22;24536;45.488;12.238;2023-02-11T10:53:19;12.00;44.00
38788;DHT22;24536;45.488;12.238;2023-02-11T10:55:55;12.10;43.80
38788;DHT22;24536;45.488;12.238;2023-02-11T10:58:44;12.20;42.90
38788;DHT22;24536;45.488;12.238;2023-02-11T11:01:10;12.30;42.10
38788;DHT22;24536;45.488;12.238;2023-02-11T11:03:39;12.40;41.90
38788;DHT22;24536;45.488;12.238;2023-02-11T11:06:10;12.50;42.00
38788;DHT22;24536;45.488;12.238;2023-02-11T11:08:47;12.60;41.90
38788;DHT22;24536;45.488;12.238;2023-02-11T11:11:15;12.70;42.50
38788;DHT22;24536;45.488;12.238;2023-02-11T11:13:57;13.20;42.00
38788;DHT22;24536;45.488;12.238;2023-02-11T11:16:28;13.20;42.40
38788;DHT22;24536;45.488;12.238;2023-02-11T11:21:51;13.70;41.00
38788;DHT22;24536;45.488;12.238;2023-02-11T11:27:03;14.20;39.40
38788;DHT22;24536;45.488;12.238;2023-02-11T11:29:38;14.40;39.00
38788;DHT22;24536;45.488;12.238;2023-02-11T11:32:15;14.30;38.20
38788;DHT22;24536;45.488;12.238;2023-02-11T11:34:54;14.20;38.20
38788;DHT22;24536;45.488;12.238;2023-02-11T11:37:27;14.00;37.90
38788;DHT22;24536;45.488;12.238;2023-02-11T11:42:40;13.80;38.70
38788;DHT22;24536;45.488;12.238;2023-02-11T11:47:57;13.60;37.50
38788;DHT22;24536;45.488;12.238;2023-02-11T11:50:34;13.50;37.70
38788;DHT22;24536;45.488;12.238;2023-02-11T11:53:10;13.40;38.30
38788;DHT22;24536;45.488;12.238;2023-02-11T11:55:44;13.20;38.00
38788;DHT22;24536;45.488;12.238;2023-02-11T11:58:17;13.10;38.70
38788;DHT22;24536;45.488;12.238;2023-02-11T12:08:50;13.00;39.30
38788;DHT22;24536;45.488;12.238;2023-02-11T12:32:59;21.30;30.50
38788;DHT22;24536;45.488;12.238;2023-02-11T12:35:53;21.60;29.70
38788;DHT22;24536;45.488;12.238;2023-02-11T12:38:55;21.80;29.70
38788;DHT22;24536;45.488;12.238;2023-02-11T12:55:43;22.00;28.00
38788;DHT22;24536;45.488;12.238;2023-02-11T12:57:39;21.50;28.40
38788;DHT22;24536;45.488;12.238;2023-02-11T13:00:16;21.00;28.60
38788;DHT22;24536;45.488;12.238;2023-02-11T13:03:03;20.40;28.90
38788;DHT22;24536;45.488;12.238;2023-02-11T13:05:38;19.90;28.80
38788;DHT22;24536;45.488;12.238;2023-02-11T13:08:29;19.40;28.70
38788;DHT22;24536;45.488;12.238;2023-02-11T13:11:26;18.90;29.10
38788;DHT22;24536;45.488;12.238;2023-02-11T13:14:08;19.30;29.10
38788;DHT22;24536;45.488;12.238;2023-02-11T13:16:45;19.30;29.30
38788;DHT22;24536;45.488;12.238;2023-02-11T13:25:03;18.90;29.20
38788;DHT22;24536;45.488;12.238;2023-02-11T13:27:35;18.30;29.30
38788;DHT22;24536;45.488;12.238;2023-02-11T13:37:52;16.40;31.60
38788;DHT22;24536;45.488;12.238;2023-02-11T13:45:42;15.60;32.50
38788;DHT22;24536;45.488;12.238;2023-02-11T13:48:27;15.30;32.50
38788;DHT22;24536;45.488;12.238;2023-02-11T13:50:58;15.10;32.50
38788;DHT22;24536;45.488;12.238;2023-02-11T13:53:25;14.90;32.70
38788;DHT22;24536;45.488;12.238;2023-02-11T13:56:04;14.80;33.60
38788;DHT22;24536;45.488;12.238;2023-02-11T13:58:33;14.70;33.70
38788;DHT22;24536;45.488;12.238;2023-02-11T14:01:01;14.70;34.80
38788;DHT22;24536;45.488;12.238;2023-02-11T14:03:31;14.60;34.50
38788;DHT22;24536;45.488;12.238;2023-02-11T14:06:27;14.40;33.80
38788;DHT22;24536;45.488;12.238;2023-02-11T14:09:36;14.10;34.50
38788;DHT22;24536;45.488;12.238;2023-02-11T14:12:29;14.20;35.00
38788;DHT22;24536;45.488;12.238;2023-02-11T14:15:18;14.00;35.10
38788;DHT22;24536;45.488;12.238;2023-02-11T14:17:44;13.80;34.80
38788;DHT22;24536;45.488;12.238;2023-02-11T14:20:31;13.70;35.70
38788;DHT22;24536;45.488;12.238;2023-02-11T14:22:58;13.70;36.10
38788;DHT22;24536;45.488;12.238;2023-02-11T14:25:25;13.60;36.10
38788;DHT22;24536;45.488;12.238;2023-02-11T14:28:20;13.50;35.50
38788;DHT22;24536;45.488;12.238;2023-02-11T14:31:02;13.50;36.10
38788;DHT22;24536;45.488;12.238;2023-02-11T14:36:34;13.40;36.30
38788;DHT22;24536;45.488;12.238;2023-02-11T14:39:53;13.30;35.70
38788;DHT22;24536;45.488;12.238;2023-02-11T14:42:23;13.30;36.30
38788;DHT22;24536;45.488;12.238;2023-02-11T14:44:54;13.20;36.50
38788;DHT22;24536;45.488;12.238;2023-02-11T14:47:24;13.20;36.60
38788;DHT22;24536;45.488;12.238;2023-02-11T14:49:52;13.10;36.60
38788;DHT22;24536;45.488;12.238;2023-02-11T14:52:28;13.00;36.50
38788;DHT22;24536;45.488;12.238;2023-02-11T14:55:33;13.10;37.00
38788;DHT22;24536;45.488;12.238;2023-02-11T14:58:32;13.00;37.10
38788;DHT22;24536;45.488;12.238;2023-02-11T15:01:17;13.00;37.60
38788;DHT22;24536;45.488;12.238;2023-02-11T15:03:48;13.00;37.30
38788;DHT22;24536;45.488;12.238;2023-02-11T15:08:52;12.90;37.50
38788;DHT22;24536;45.488;12.238;2023-02-11T15:11:20;12.90;37.20
38788;DHT22;24536;45.488;12.238;2023-02-11T15:13:47;12.80;37.20
38788;DHT22;24536;45.488;12.238;2023-02-11T15:16:24;12.80;37.40
38788;DHT22;24536;45.488;12.238;2023-02-11T15:18:54;12.70;38.00
38788;DHT22;24536;45.488;12.238;2023-02-11T15:21:26;12.70;38.20
38788;DHT22;24536;45.488;12.238;2023-02-11T15:24:00;12.60;38.50
38788;DHT22;24536;45.488;12.238;2023-02-11T15:26:26;12.60;39.00
38788;DHT22;24536;45.488;12.238;2023-02-11T15:28:52;12.60;38.40
38788;DHT22;24536;45.488;12.238;2023-02-11T15:31:23;12.50;38.20
38788;DHT22;24536;45.488;12.238;2023-02-11T15:33:50;12.50;38.20
38788;DHT22;24536;45.488;12.238;2023-02-11T15:36:17;12.50;38.90
38788;DHT22;24536;45.488;12.238;2023-02-11T15:38:43;12.50;39.20
38788;DHT22;24536;45.488;12.238;2023-02-11T15:41:38;12.40;39.10
38788;DHT22;24536;45.488;12.238;2023-02-11T15:44:04;12.40;39.40
38788;DHT22;24536;45.488;12.238;2023-02-11T15:46:37;12.40;39.90
38788;DHT22;24536;45.488;12.238;2023-02-11T15:49:04;12.30;40.10
38788;DHT22;24536;45.488;12.238;2023-02-11T15:51:33;12.30;40.50
38788;DHT22;24536;45.488;12.238;2023-02-11T15:54:25;12.20;40.70
38788;DHT22;24536;45.488;12.238;2023-02-11T15:56:53;12.20;40.60
38788;DHT22;24536;45.488;12.238;2023-02-11T15:59:27;12.20;41.30
38788;DHT22;24536;45.488;12.238;2023-02-11T16:04:24;12.10;41.30
38788;DHT22;24536;45.488;12.238;2023-02-11T16:06:52;12.00;42.00
38788;DHT22;24536;45.488;12.238;2023-02-11T16:14:26;11.90;45.70
38788;DHT22;24536;45.488;12.238;2023-02-11T16:17:03;11.90;44.60
38788;DHT22;24536;45.488;12.238;2023-02-11T16:19:32;11.90;43.60
38788;DHT22;24536;45.488;12.238;2023-02-11T16:22:00;11.90;43.30
38788;DHT22;24536;45.488;12.238;2023-02-11T16:24:29;11.80;43.10
38788;DHT22;24536;45.488;12.238;2023-02-11T16:29:44;11.70;43.90
38788;DHT22;24536;45.488;12.238;2023-02-11T16:32:24;11.70;44.40
38788;DHT22;24536;45.488;12.238;2023-02-11T16:34:51;11.70;45.30
38788;DHT22;24536;45.488;12.238;2023-02-11T16:37:17;11.50;44.80
38788;DHT22;24536;45.488;12.238;2023-02-11T16:39:43;11.50;45.10
38788;DHT22;24536;45.488;12.238;2023-02-11T16:42:10;11.50;45.60
38788;DHT22;24536;45.488;12.238;2023-02-11T16:44:36;11.40;45.90
38788;DHT22;24536;45.488;12.238;2023-02-11T16:47:03;11.40;46.30
38788;DHT22;24536;45.488;12.238;2023-02-11T16:49:39;11.40;46.80
38788;DHT22;24536;45.488;12.238;2023-02-11T16:52:08;11.30;47.10
38788;DHT22;24536;45.488;12.238;2023-02-11T16:54:37;11.30;47.80
38788;DHT22;24536;45.488;12.238;2023-02-11T16:57:23;11.20;48.50
38788;DHT22;24536;45.488;12.238;2023-02-11T16:59:50;11.10;48.60
38788;DHT22;24536;45.488;12.238;2023-02-11T17:02:21;11.00;48.60
38788;DHT22;24536;45.488;12.238;2023-02-11T17:04:47;11.00;49.00
38788;DHT22;24536;45.488;12.238;2023-02-11T17:07:13;11.00;48.60
38788;DHT22;24536;45.488;12.238;2023-02-11T17:09:39;10.90;48.10
38788;DHT22;24536;45.488;12.238;2023-02-11T17:12:05;10.90;48.20
38788;DHT22;24536;45.488;12.238;2023-02-11T17:14:31;10.90;48.90
38788;DHT22;24536;45.488;12.238;2023-02-11T17:16:57;10.80;49.30
38788;DHT22;24536;45.488;12.238;2023-02-11T17:19:22;10.80;49.80
38788;DHT22;24536;45.488;12.238;2023-02-11T17:21:50;10.70;50.10
38788;DHT22;24536;45.488;12.238;2023-02-11T17:24:18;10.60;50.30
38788;DHT22;24536;45.488;12.238;2023-02-11T17:26:44;10.50;50.60
38788;DHT22;24536;45.488;12.238;2023-02-11T17:29:13;10.50;50.60
38788;DHT22;24536;45.488;12.238;2023-02-11T17:31:39;10.50;51.00
38788;DHT22;24536;45.488;12.238;2023-02-11T17:34:05;10.40;51.20
38788;DHT22;24536;45.488;12.238;2023-02-11T17:36:30;10.30;51.20
38788;DHT22;24536;45.488;12.238;2023-02-11T17:41:24;10.30;51.10
38788;DHT22;24536;45.488;12.238;2023-02-11T17:43:49;10.30;51.50
38788;DHT22;24536;45.488;12.238;2023-02-11T17:46:16;10.20;51.60
38788;DHT22;24536;45.488;12.238;2023-02-11T17:48:41;10.10;51.60
38788;DHT22;24536;45.488;12.238;2023-02-11T17:51:25;10.10;51.50
38788;DHT22;24536;45.488;12.238;2023-02-11T17:53:51;10.10;52.00
38788;DHT22;24536;45.488;12.238;2023-02-11T17:56:18;10.00;52.20
38788;DHT22;24536;45.488;12.238;2023-02-11T17:58:44;10.00;52.40
38788;DHT22;24536;45.488;12.238;2023-02-11T18:01:10;9.90;52.50
38788;DHT22;24536;45.488;12.238;2023-02-11T18:03:36;9.90;52.80
38788;DHT22;24536;45.488;12.238;2023-02-11T18:06:02;9.80;52.40
38788;DHT22;24536;45.488;12.238;2023-02-11T18:08:29;9.80;52.90
38788;DHT22;24536;45.488;12.238;2023-02-11T18:10:55;9.80;53.20
38788;DHT22;24536;45.488;12.238;2023-02-11T18:13:20;9.70;52.90
38788;DHT22;24536;45.488;12.238;2023-02-11T18:15:47;9.80;53.30
38788;DHT22;24536;45.488;12.238;2023-02-11T18:18:13;9.70;53.30
38788;DHT22;24536;45.488;12.238;2023-02-11T18:20:39;9.70;53.20
38788;DHT22;24536;45.488;12.238;2023-02-11T18:23:08;9.70;53.70
38788;DHT22;24536;45.488;12.238;2023-02-11T18:25:34;9.60;53.90
38788;DHT22;24536;45.488;12.238;2023-02-11T18:28:00;9.60;54.10
38788;DHT22;24536;45.488;12.238;2023-02-11T18:30:27;9.50;54.10
38788;DHT22;24536;45.488;12.238;2023-02-11T18:32:54;9.50;54.10